aviador You're here:

LYTV Decoded Metar

TIVAT in SERBIA
Report Time2017-12-11 05:00:00
UTC Time2017-12-11 05:35:04
Flight Rules vfr VFR
Wind140° at 17 kt
W.Decomp.*RWY 14: 17.0 kt HW 0.6 kt LCW
W.Rank140° ranks 6
Current wind is above 140° avg. (4.5)
Visibility9999 m
Phenomena:N/A
Clouds:Scattered 040 Hf
Overcast 070 Hf
Expected CloudBase > 1,600 ft AGL from Temp-Dew spread
Ceiling7,000 ft
Temp10°C (ISA -5)
Dew Point06°C (76% RH)
AAT3.0°C
QNH1017 hPa
Density Alt-587 ft
Elevation16 ft
Report Wrong Elevation
Raw Report
LYTV 110500Z 14017KT 110V200 9999 SCT040 OVC070 10/06 Q1017=

Extra information for LYTV:More info

Metar Taf Metar & Taf Last 4 Metars F.Rules Stats Wind Profile Meteogram Temp Stats Airport Information Weather charts Add Link Nearby VenuesMetar ALERT Operation Metar Decoded Social comments